Create Tblcommutelog Verified Points Advance Search
| # | Trip ID | Id Commuter | Trip Date | Trip Num | Current Lat | Current Lng | Delta Distance | Current Time | Activity | Activity Confidence | Current Speed | |
|---|---|---|---|---|---|---|---|---|---|---|---|---|
| 73801 | 260224_757722_16502878_0610 | 757722 | (not set) | (not set) | 38.842331733714 | -77.634480989298 | 0 | 2026-02-24 06:10:08 | unknown | 100 | -0.44703925898772 | |
| 73802 | 260224_757722_16502878_0610 | 757722 | (not set) | (not set) | 38.842331733714 | -77.634480989298 | 0 | 2026-02-24 06:10:07 | unknown | 100 | -0.44703925898772 | |
| 73803 | 260224_757722_16502878_0610 | 757722 | (not set) | (not set) | 38.842331733714 | -77.634480989298 | 0 | 2026-02-24 06:10:08 | unknown | 100 | -0.44703925898772 | |
| 73804 | 260224_757722_16502878_0610 | 757722 | (not set) | (not set) | 38.842331733714 | -77.634480989298 | 0 | 2026-02-24 06:10:08 | unknown | 100 | -0.44703925898772 | |
| 73805 | 260224_757722_16502878_0610 | 757722 | (not set) | (not set) | 38.842331733714 | -77.634480989298 | 0 | 2026-02-24 06:10:08 | unknown | 100 | -0.44703925898772 | |
| 73806 | 260224_757722_16502878_0610 | 757722 | (not set) | (not set) | 38.842331733714 | -77.634480989298 | 0 | 2026-02-24 06:10:07 | unknown | 100 | -0.44703925898772 | |
| 73807 | 260224_773521_16443759_0554 | 773521 | (not set) | (not set) | 38.878756216955 | -77.259910409657 | 16.6585 | 2026-02-24 06:10:14 | in_vehicle | 100 | 13.876098598979 | |
| 73808 | 260224_784706_16442607_0554 | 784706 | (not set) | (not set) | 39.088553383333 | -76.99875955 | 12.9399 | 2026-02-24 06:10:16 | in_vehicle | 100 | 14.144322154372 | |
| 73809 | 260224_784707_16442607_0545 | 784707 | (not set) | (not set) | 39.088546641946 | -76.999045245116 | 13.0465 | 2026-02-24 06:10:17 | in_vehicle | 100 | 14.229259613579 | |
| 73810 | 260224_758406_16511401_0550 | 758406 | (not set) | (not set) | 38.893948770244 | -77.02237157128 | 4.0011 | 2026-02-24 06:10:20 | on_foot | 100 | -0.44703925898772 | |
| 73811 | 260224_773521_16443759_0554 | 773521 | (not set) | (not set) | 38.879004912942 | -77.255560253752 | 16.8936 | 2026-02-24 06:10:26 | in_vehicle | 100 | 14.090677443293 | |
| 73812 | 260224_784706_16442607_0554 | 784706 | (not set) | (not set) | 39.0882946 | -77.003134116667 | 13.1758 | 2026-02-24 06:10:28 | in_vehicle | 100 | 14.327608250557 | |
| 73813 | 260224_784707_16442607_0545 | 784707 | (not set) | (not set) | 39.088316890358 | -77.003431061955 | 13.2828 | 2026-02-24 06:10:29 | in_vehicle | 100 | 14.372312176455 | |
| 73814 | 260224_773521_16443759_0554 | 773521 | (not set) | (not set) | 38.879245863004 | -77.251245933092 | 17.1268 | 2026-02-24 06:10:38 | in_vehicle | 100 | 13.8224538879 | |
| 73815 | 260224_784706_16442607_0554 | 784706 | (not set) | (not set) | 39.088059783333 | -77.0072347 | 13.3969 | 2026-02-24 06:10:39 | in_vehicle | 100 | 14.233730006169 | |
| 73816 | 260224_784707_16442607_0545 | 784707 | (not set) | (not set) | 39.088065222143 | -77.007516156754 | 13.5031 | 2026-02-24 06:10:40 | in_vehicle | 100 | 14.229259613579 | |
| 73817 | 260224_784706_16442607_0554 | 784706 | (not set) | (not set) | 39.08774295 | -77.01012555 | 13.5538 | 2026-02-24 06:10:47 | in_vehicle | 100 | 14.072795872934 | |
| 73818 | 260224_784707_16442607_0545 | 784707 | (not set) | (not set) | 39.087682859153 | -77.010768621904 | 13.68 | 2026-02-24 06:10:49 | in_vehicle | 100 | 14.050443909984 | |
| 73819 | 260224_773521_16443759_0554 | 773521 | (not set) | (not set) | 38.8794850591 | -77.247006618815 | 17.356 | 2026-02-24 06:10:50 | in_vehicle | 100 | 13.710694073154 | |
| 73820 | 260224_784706_16442607_0554 | 784706 | (not set) | (not set) | 39.087542 | -77.011549266667 | 13.6316 | 2026-02-24 06:10:51 | in_vehicle | 100 | 13.889509776749 |